This is the latest recevied weather packets stored in our database for station/object SQ9IWE-13. If no packets are shown the sender has not sent any weather packets the latest 10 day(s).
| Time | Temp. | Humidity | Pressure | Rain* | Wind** | Luminosity | Snow |
|---|---|---|---|---|---|---|---|
| 1778151601 | 21.11° C | 58% | 1010.7 hPa | - | - | - | - |
| 1778151001 | 21.67° C | 58% | 1010.6 hPa | - | - | - | - |
| 1778150401 | 21.67° C | 60% | 1010.5 hPa | - | - | - | - |
| 1778149801 | 21.67° C | 59% | 1010.4 hPa | - | - | - | - |
| 1778149201 | 21.11° C | 60% | 1010.5 hPa | - | - | - | - |
| 1778148601 | 20.56° C | 61% | 1010.6 hPa | - | - | - | - |
| 1778148001 | 21.11° C | 60% | 1010.5 hPa | - | - | - | - |
| 1778147401 | 21.11° C | 60% | 1010.3 hPa | - | - | - | - |
| 1778146801 | 21.11° C | 61% | 1010.3 hPa | - | - | - | - |
| 1778146201 | 21.11° C | 61% | 1010.2 hPa | - | - | - | - |
| 1778145601 | 20.56° C | 62% | 1010.2 hPa | - | - | - | - |
| 1778145001 | 21.11° C | 62% | 1010.1 hPa | - | - | - | - |
| 1778144401 | 21.11° C | 62% | 1009.8 hPa | - | - | - | - |
| 1778143801 | 20.56° C | 64% | 1009.8 hPa | - | - | - | - |
| 1778143201 | 19.44° C | 67% | 1009.7 hPa | - | - | - | - |
| 1778142601 | 21.11° C | 62% | 1009.6 hPa | - | - | - | - |
| 1778142001 | 21.11° C | 65% | 1009.4 hPa | - | - | - | - |
| 1778141401 | 18.89° C | 71% | 1009.5 hPa | - | - | - | - |
| 1778140801 | 18.89° C | 70% | 1009.5 hPa | - | - | - | - |
| 1778140201 | 18.33° C | 71% | 1009.4 hPa | - | - | - | - |
| 1778139601 | 18.89° C | 68% | 1009.1 hPa | - | - | - | - |
| 1778139001 | -13.89° C | 68% | - | - | - | - | - |
| 1778138401 | 18.89° C | 70% | 1008.8 hPa | - | - | - | - |
| 1778137801 | 18.89° C | 70% | 1008.8 hPa | - | - | - | - |
| 1778137201 | 18.33° C | 71% | 1008.6 hPa | - | - | - | - |
* Rain since midnight (hover to see other rain measurements)
** Current wind speed in m/s (hover to see current wind gust speed)